sensor_id;sensor_type;location;lat;lon;timestamp;P1;durP1;ratioP1;P2;durP2;ratioP2
43893;SDS011;29556;50.846;4.442;2022-11-20T00:02:01;5.53;;;2.95;;
43893;SDS011;29556;50.846;4.442;2022-11-20T00:04:28;9.60;;;3.30;;
43893;SDS011;29556;50.846;4.442;2022-11-20T00:06:53;7.65;;;2.22;;
43893;SDS011;29556;50.846;4.442;2022-11-20T00:09:19;11.75;;;3.42;;
43893;SDS011;29556;50.846;4.442;2022-11-20T00:11:45;9.82;;;3.45;;
43893;SDS011;29556;50.846;4.442;2022-11-20T00:14:11;9.30;;;3.83;;
43893;SDS011;29556;50.846;4.442;2022-11-20T00:16:36;8.60;;;2.65;;
43893;SDS011;29556;50.846;4.442;2022-11-20T00:19:02;8.20;;;2.20;;
43893;SDS011;29556;50.846;4.442;2022-11-20T00:21:28;9.35;;;3.55;;
43893;SDS011;29556;50.846;4.442;2022-11-20T00:23:55;12.20;;;2.95;;
43893;SDS011;29556;50.846;4.442;2022-11-20T00:26:22;11.98;;;3.20;;
43893;SDS011;29556;50.846;4.442;2022-11-20T00:28:51;7.55;;;2.42;;
43893;SDS011;29556;50.846;4.442;2022-11-20T00:31:21;10.93;;;3.25;;
43893;SDS011;29556;50.846;4.442;2022-11-20T00:33:47;8.82;;;3.20;;
43893;SDS011;29556;50.846;4.442;2022-11-20T00:38:42;6.75;;;2.92;;
43893;SDS011;29556;50.846;4.442;2022-11-20T00:41:09;6.80;;;2.92;;
43893;SDS011;29556;50.846;4.442;2022-11-20T00:43:40;10.10;;;3.08;;
43893;SDS011;29556;50.846;4.442;2022-11-20T00:46:07;8.25;;;2.70;;
43893;SDS011;29556;50.846;4.442;2022-11-20T00:48:43;11.02;;;3.45;;
43893;SDS011;29556;50.846;4.442;2022-11-20T00:51:09;10.18;;;3.05;;
43893;SDS011;29556;50.846;4.442;2022-11-20T00:53:37;5.10;;;2.75;;
43893;SDS011;29556;50.846;4.442;2022-11-20T00:56:04;8.00;;;3.50;;
43893;SDS011;29556;50.846;4.442;2022-11-20T00:58:37;8.93;;;3.90;;
43893;SDS011;29556;50.846;4.442;2022-11-20T01:01:08;10.55;;;3.53;;
43893;SDS011;29556;50.846;4.442;2022-11-20T01:03:39;7.35;;;3.03;;
43893;SDS011;29556;50.846;4.442;2022-11-20T01:06:07;6.40;;;3.03;;
43893;SDS011;29556;50.846;4.442;2022-11-20T01:11:05;9.18;;;2.75;;
43893;SDS011;29556;50.846;4.442;2022-11-20T01:13:32;10.50;;;3.58;;
43893;SDS011;29556;50.846;4.442;2022-11-20T01:16:14;8.27;;;2.88;;
43893;SDS011;29556;50.846;4.442;2022-11-20T01:18:43;15.18;;;3.55;;
43893;SDS011;29556;50.846;4.442;2022-11-20T01:21:16;9.00;;;3.58;;
43893;SDS011;29556;50.846;4.442;2022-11-20T01:24:03;9.77;;;3.65;;
43893;SDS011;29556;50.846;4.442;2022-11-20T01:26:34;14.05;;;3.28;;
43893;SDS011;29556;50.846;4.442;2022-11-20T01:31:31;11.73;;;2.70;;
43893;SDS011;29556;50.846;4.442;2022-11-20T01:34:03;13.48;;;4.00;;
43893;SDS011;29556;50.846;4.442;2022-11-20T01:36:35;7.15;;;2.50;;
43893;SDS011;29556;50.846;4.442;2022-11-20T01:39:03;6.88;;;2.50;;
43893;SDS011;29556;50.846;4.442;2022-11-20T01:41:31;11.73;;;2.90;;
43893;SDS011;29556;50.846;4.442;2022-11-20T01:44:18;7.72;;;3.35;;
43893;SDS011;29556;50.846;4.442;2022-11-20T01:46:54;12.57;;;2.92;;
43893;SDS011;29556;50.846;4.442;2022-11-20T01:49:39;7.72;;;2.78;;
43893;SDS011;29556;50.846;4.442;2022-11-20T01:52:17;9.45;;;3.05;;
43893;SDS011;29556;50.846;4.442;2022-11-20T01:54:55;8.20;;;3.40;;
43893;SDS011;29556;50.846;4.442;2022-11-20T01:57:27;9.57;;;3.63;;
43893;SDS011;29556;50.846;4.442;2022-11-20T01:59:59;11.73;;;4.10;;
43893;SDS011;29556;50.846;4.442;2022-11-20T02:02:31;16.55;;;3.47;;
43893;SDS011;29556;50.846;4.442;2022-11-20T02:04:58;8.13;;;3.22;;
43893;SDS011;29556;50.846;4.442;2022-11-20T02:07:29;11.38;;;3.85;;
43893;SDS011;29556;50.846;4.442;2022-11-20T02:09:55;11.82;;;3.60;;
43893;SDS011;29556;50.846;4.442;2022-11-20T02:12:21;8.80;;;3.47;;
43893;SDS011;29556;50.846;4.442;2022-11-20T02:15:05;12.82;;;3.20;;
43893;SDS011;29556;50.846;4.442;2022-11-20T02:17:32;10.25;;;3.67;;
43893;SDS011;29556;50.846;4.442;2022-11-20T02:19:58;8.52;;;3.55;;
43893;SDS011;29556;50.846;4.442;2022-11-20T02:22:27;6.40;;;2.58;;
43893;SDS011;29556;50.846;4.442;2022-11-20T02:25:00;11.25;;;3.25;;
43893;SDS011;29556;50.846;4.442;2022-11-20T02:27:28;5.65;;;2.33;;
43893;SDS011;29556;50.846;4.442;2022-11-20T02:29:59;9.20;;;2.90;;
43893;SDS011;29556;50.846;4.442;2022-11-20T02:32:29;9.63;;;2.70;;
43893;SDS011;29556;50.846;4.442;2022-11-20T02:34:56;10.75;;;3.88;;
43893;SDS011;29556;50.846;4.442;2022-11-20T02:37:23;12.52;;;4.20;;
43893;SDS011;29556;50.846;4.442;2022-11-20T02:39:55;6.07;;;3.03;;
43893;SDS011;29556;50.846;4.442;2022-11-20T02:42:21;11.27;;;3.92;;
43893;SDS011;29556;50.846;4.442;2022-11-20T02:44:46;10.27;;;3.90;;
43893;SDS011;29556;50.846;4.442;2022-11-20T02:47:12;10.68;;;4.07;;
43893;SDS011;29556;50.846;4.442;2022-11-20T02:49:37;7.30;;;2.92;;
43893;SDS011;29556;50.846;4.442;2022-11-20T02:52:03;8.18;;;2.90;;
43893;SDS011;29556;50.846;4.442;2022-11-20T02:54:29;9.90;;;3.20;;
43893;SDS011;29556;50.846;4.442;2022-11-20T02:56:54;11.70;;;3.70;;
43893;SDS011;29556;50.846;4.442;2022-11-20T02:59:20;11.85;;;2.92;;
43893;SDS011;29556;50.846;4.442;2022-11-20T03:01:46;13.00;;;4.10;;
43893;SDS011;29556;50.846;4.442;2022-11-20T03:04:11;8.80;;;3.10;;
43893;SDS011;29556;50.846;4.442;2022-11-20T03:06:37;4.90;;;2.50;;
43893;SDS011;29556;50.846;4.442;2022-11-20T03:09:04;4.13;;;2.65;;
43893;SDS011;29556;50.846;4.442;2022-11-20T03:11:29;6.38;;;2.42;;
43893;SDS011;29556;50.846;4.442;2022-11-20T03:13:55;10.45;;;2.63;;
43893;SDS011;29556;50.846;4.442;2022-11-20T03:16:21;7.55;;;1.70;;
43893;SDS011;29556;50.846;4.442;2022-11-20T03:18:48;12.20;;;3.03;;
43893;SDS011;29556;50.846;4.442;2022-11-20T03:21:14;8.02;;;2.80;;
43893;SDS011;29556;50.846;4.442;2022-11-20T03:23:41;10.68;;;2.05;;
43893;SDS011;29556;50.846;4.442;2022-11-20T03:26:17;6.97;;;1.90;;
43893;SDS011;29556;50.846;4.442;2022-11-20T03:28:48;7.60;;;2.10;;
43893;SDS011;29556;50.846;4.442;2022-11-20T03:31:16;7.53;;;2.42;;
43893;SDS011;29556;50.846;4.442;2022-11-20T03:33:43;3.70;;;1.67;;
43893;SDS011;29556;50.846;4.442;2022-11-20T03:36:10;11.27;;;2.78;;
43893;SDS011;29556;50.846;4.442;2022-11-20T03:38:38;4.82;;;2.05;;
43893;SDS011;29556;50.846;4.442;2022-11-20T03:41:09;3.80;;;2.35;;
43893;SDS011;29556;50.846;4.442;2022-11-20T03:43:39;4.85;;;1.40;;
43893;SDS011;29556;50.846;4.442;2022-11-20T03:46:05;4.93;;;1.70;;
43893;SDS011;29556;50.846;4.442;2022-11-20T03:48:32;4.88;;;2.22;;
43893;SDS011;29556;50.846;4.442;2022-11-20T03:51:07;9.45;;;2.50;;
43893;SDS011;29556;50.846;4.442;2022-11-20T03:53:38;5.90;;;1.80;;
43893;SDS011;29556;50.846;4.442;2022-11-20T03:56:04;5.00;;;2.40;;
43893;SDS011;29556;50.846;4.442;2022-11-20T03:58:32;6.40;;;1.73;;
43893;SDS011;29556;50.846;4.442;2022-11-20T04:01:03;9.82;;;1.55;;
43893;SDS011;29556;50.846;4.442;2022-11-20T04:06:01;4.72;;;2.10;;
43893;SDS011;29556;50.846;4.442;2022-11-20T04:08:28;8.25;;;2.70;;
43893;SDS011;29556;50.846;4.442;2022-11-20T04:10:54;6.20;;;2.38;;
43893;SDS011;29556;50.846;4.442;2022-11-20T04:13:19;5.88;;;1.52;;
43893;SDS011;29556;50.846;4.442;2022-11-20T04:15:45;7.95;;;1.70;;
43893;SDS011;29556;50.846;4.442;2022-11-20T04:18:11;6.72;;;2.40;;
43893;SDS011;29556;50.846;4.442;2022-11-20T04:20:38;6.70;;;2.08;;
43893;SDS011;29556;50.846;4.442;2022-11-20T04:23:04;6.60;;;2.50;;
43893;SDS011;29556;50.846;4.442;2022-11-20T04:25:29;4.65;;;2.88;;
43893;SDS011;29556;50.846;4.442;2022-11-20T04:27:55;6.00;;;2.30;;
43893;SDS011;29556;50.846;4.442;2022-11-20T04:30:20;5.50;;;2.20;;
43893;SDS011;29556;50.846;4.442;2022-11-20T04:32:47;6.53;;;1.60;;
43893;SDS011;29556;50.846;4.442;2022-11-20T04:35:13;11.55;;;2.63;;
43893;SDS011;29556;50.846;4.442;2022-11-20T04:37:38;9.98;;;3.13;;
43893;SDS011;29556;50.846;4.442;2022-11-20T04:40:04;7.47;;;2.90;;
43893;SDS011;29556;50.846;4.442;2022-11-20T04:42:30;9.10;;;2.55;;
43893;SDS011;29556;50.846;4.442;2022-11-20T04:44:56;9.57;;;2.20;;
43893;SDS011;29556;50.846;4.442;2022-11-20T04:47:22;9.73;;;2.67;;
43893;SDS011;29556;50.846;4.442;2022-11-20T04:49:49;8.00;;;2.72;;
43893;SDS011;29556;50.846;4.442;2022-11-20T04:52:15;8.85;;;2.50;;
43893;SDS011;29556;50.846;4.442;2022-11-20T04:54:40;11.57;;;2.35;;
43893;SDS011;29556;50.846;4.442;2022-11-20T04:57:06;9.63;;;2.92;;
43893;SDS011;29556;50.846;4.442;2022-11-20T04:59:32;12.57;;;2.65;;
43893;SDS011;29556;50.846;4.442;2022-11-20T05:01:57;13.55;;;3.05;;
43893;SDS011;29556;50.846;4.442;2022-11-20T05:04:23;9.20;;;3.42;;
43893;SDS011;29556;50.846;4.442;2022-11-20T05:06:49;11.88;;;2.65;;
43893;SDS011;29556;50.846;4.442;2022-11-20T05:09:15;13.25;;;2.50;;
43893;SDS011;29556;50.846;4.442;2022-11-20T05:11:40;7.45;;;3.75;;
43893;SDS011;29556;50.846;4.442;2022-11-20T05:14:06;11.98;;;2.97;;
43893;SDS011;29556;50.846;4.442;2022-11-20T05:16:33;7.07;;;1.85;;
43893;SDS011;29556;50.846;4.442;2022-11-20T05:18:59;8.75;;;3.78;;
43893;SDS011;29556;50.846;4.442;2022-11-20T05:21:25;8.05;;;2.00;;
43893;SDS011;29556;50.846;4.442;2022-11-20T05:23:50;10.05;;;2.60;;
43893;SDS011;29556;50.846;4.442;2022-11-20T05:26:17;9.07;;;2.55;;
43893;SDS011;29556;50.846;4.442;2022-11-20T05:28:44;8.82;;;2.67;;
43893;SDS011;29556;50.846;4.442;2022-11-20T05:31:14;12.05;;;2.95;;
43893;SDS011;29556;50.846;4.442;2022-11-20T05:33:44;17.58;;;2.55;;
43893;SDS011;29556;50.846;4.442;2022-11-20T05:36:11;7.22;;;2.45;;
43893;SDS011;29556;50.846;4.442;2022-11-20T05:38:37;10.80;;;4.80;;
43893;SDS011;29556;50.846;4.442;2022-11-20T05:41:04;12.30;;;4.18;;
43893;SDS011;29556;50.846;4.442;2022-11-20T05:43:38;9.95;;;3.03;;
43893;SDS011;29556;50.846;4.442;2022-11-20T05:46:05;10.98;;;4.05;;
43893;SDS011;29556;50.846;4.442;2022-11-20T05:48:32;9.43;;;3.50;;
43893;SDS011;29556;50.846;4.442;2022-11-20T05:51:00;13.38;;;3.38;;
43893;SDS011;29556;50.846;4.442;2022-11-20T05:53:27;15.05;;;3.97;;
43893;SDS011;29556;50.846;4.442;2022-11-20T05:55:57;5.03;;;2.25;;
43893;SDS011;29556;50.846;4.442;2022-11-20T05:58:24;6.85;;;2.30;;
43893;SDS011;29556;50.846;4.442;2022-11-20T06:00:49;13.43;;;2.53;;
43893;SDS011;29556;50.846;4.442;2022-11-20T06:03:15;9.88;;;2.38;;
43893;SDS011;29556;50.846;4.442;2022-11-20T06:05:40;8.48;;;2.45;;
43893;SDS011;29556;50.846;4.442;2022-11-20T06:08:06;12.13;;;3.10;;
43893;SDS011;29556;50.846;4.442;2022-11-20T06:10:32;11.25;;;3.15;;
43893;SDS011;29556;50.846;4.442;2022-11-20T06:12:57;6.10;;;2.20;;
43893;SDS011;29556;50.846;4.442;2022-11-20T06:15:23;11.68;;;3.80;;
43893;SDS011;29556;50.846;4.442;2022-11-20T06:17:51;5.85;;;2.47;;
43893;SDS011;29556;50.846;4.442;2022-11-20T06:20:18;11.25;;;2.90;;
43893;SDS011;29556;50.846;4.442;2022-11-20T06:22:45;11.75;;;3.47;;
43893;SDS011;29556;50.846;4.442;2022-11-20T06:25:10;11.45;;;3.67;;
43893;SDS011;29556;50.846;4.442;2022-11-20T06:27:36;12.23;;;3.70;;
43893;SDS011;29556;50.846;4.442;2022-11-20T06:30:01;7.57;;;3.22;;
43893;SDS011;29556;50.846;4.442;2022-11-20T06:32:28;11.93;;;3.15;;
43893;SDS011;29556;50.846;4.442;2022-11-20T06:34:53;8.05;;;1.98;;
43893;SDS011;29556;50.846;4.442;2022-11-20T06:37:19;4.88;;;2.30;;
43893;SDS011;29556;50.846;4.442;2022-11-20T06:39:45;20.13;;;3.65;;
43893;SDS011;29556;50.846;4.442;2022-11-20T06:42:10;9.63;;;3.97;;
43893;SDS011;29556;50.846;4.442;2022-11-20T06:44:36;8.10;;;3.17;;
43893;SDS011;29556;50.846;4.442;2022-11-20T06:47:01;10.77;;;2.90;;
43893;SDS011;29556;50.846;4.442;2022-11-20T06:49:27;14.23;;;4.15;;
43893;SDS011;29556;50.846;4.442;2022-11-20T06:51:53;14.45;;;1.95;;
43893;SDS011;29556;50.846;4.442;2022-11-20T06:54:19;12.55;;;3.20;;
43893;SDS011;29556;50.846;4.442;2022-11-20T06:56:48;7.85;;;1.85;;
43893;SDS011;29556;50.846;4.442;2022-11-20T06:59:14;12.25;;;3.28;;
43893;SDS011;29556;50.846;4.442;2022-11-20T07:01:40;10.73;;;3.10;;
43893;SDS011;29556;50.846;4.442;2022-11-20T07:04:06;10.60;;;3.25;;
43893;SDS011;29556;50.846;4.442;2022-11-20T07:06:32;14.02;;;3.35;;
43893;SDS011;29556;50.846;4.442;2022-11-20T07:08:57;19.50;;;2.67;;
43893;SDS011;29556;50.846;4.442;2022-11-20T07:11:23;10.77;;;3.15;;
43893;SDS011;29556;50.846;4.442;2022-11-20T07:13:49;12.80;;;2.70;;
43893;SDS011;29556;50.846;4.442;2022-11-20T07:16:15;8.77;;;2.78;;
43893;SDS011;29556;50.846;4.442;2022-11-20T07:18:41;10.07;;;3.38;;
43893;SDS011;29556;50.846;4.442;2022-11-20T07:21:08;18.88;;;3.63;;
43893;SDS011;29556;50.846;4.442;2022-11-20T07:23:35;13.65;;;3.65;;
43893;SDS011;29556;50.846;4.442;2022-11-20T07:26:05;7.97;;;2.92;;
43893;SDS011;29556;50.846;4.442;2022-11-20T07:28:32;20.00;;;3.90;;
43893;SDS011;29556;50.846;4.442;2022-11-20T07:30:58;11.38;;;3.58;;
43893;SDS011;29556;50.846;4.442;2022-11-20T07:33:24;10.02;;;2.78;;
43893;SDS011;29556;50.846;4.442;2022-11-20T07:35:49;11.10;;;2.63;;
43893;SDS011;29556;50.846;4.442;2022-11-20T07:38:15;8.27;;;4.00;;
43893;SDS011;29556;50.846;4.442;2022-11-20T07:40:41;17.70;;;3.13;;
43893;SDS011;29556;50.846;4.442;2022-11-20T07:43:07;11.05;;;3.40;;
43893;SDS011;29556;50.846;4.442;2022-11-20T07:45:33;10.68;;;2.20;;
43893;SDS011;29556;50.846;4.442;2022-11-20T07:47:59;14.20;;;3.42;;
43893;SDS011;29556;50.846;4.442;2022-11-20T07:50:24;11.00;;;2.55;;
43893;SDS011;29556;50.846;4.442;2022-11-20T07:52:50;11.80;;;3.35;;
43893;SDS011;29556;50.846;4.442;2022-11-20T07:55:16;11.50;;;3.53;;
43893;SDS011;29556;50.846;4.442;2022-11-20T07:57:41;13.32;;;3.42;;
43893;SDS011;29556;50.846;4.442;2022-11-20T08:00:08;13.80;;;3.35;;
43893;SDS011;29556;50.846;4.442;2022-11-20T08:02:38;15.23;;;2.55;;
43893;SDS011;29556;50.846;4.442;2022-11-20T08:05:04;8.00;;;2.45;;
43893;SDS011;29556;50.846;4.442;2022-11-20T08:07:35;16.50;;;4.05;;
43893;SDS011;29556;50.846;4.442;2022-11-20T08:10:03;8.80;;;3.45;;
43893;SDS011;29556;50.846;4.442;2022-11-20T08:12:30;7.20;;;3.50;;
43893;SDS011;29556;50.846;4.442;2022-11-20T08:15:14;7.07;;;1.70;;
43893;SDS011;29556;50.846;4.442;2022-11-20T08:17:39;19.30;;;3.10;;
43893;SDS011;29556;50.846;4.442;2022-11-20T08:20:05;11.10;;;3.38;;
43893;SDS011;29556;50.846;4.442;2022-11-20T08:22:31;12.00;;;2.42;;
43893;SDS011;29556;50.846;4.442;2022-11-20T08:24:57;7.47;;;2.97;;
43893;SDS011;29556;50.846;4.442;2022-11-20T08:27:23;10.18;;;3.65;;
43893;SDS011;29556;50.846;4.442;2022-11-20T08:29:48;15.15;;;3.65;;
43893;SDS011;29556;50.846;4.442;2022-11-20T08:32:14;11.63;;;2.80;;
43893;SDS011;29556;50.846;4.442;2022-11-20T08:34:39;9.48;;;3.80;;
43893;SDS011;29556;50.846;4.442;2022-11-20T08:37:05;12.00;;;4.00;;
43893;SDS011;29556;50.846;4.442;2022-11-20T08:39:31;11.85;;;2.78;;
43893;SDS011;29556;50.846;4.442;2022-11-20T08:41:56;8.65;;;3.20;;
43893;SDS011;29556;50.846;4.442;2022-11-20T08:44:22;10.63;;;2.67;;
43893;SDS011;29556;50.846;4.442;2022-11-20T08:46:47;20.40;;;4.20;;
43893;SDS011;29556;50.846;4.442;2022-11-20T08:49:13;9.13;;;2.65;;
43893;SDS011;29556;50.846;4.442;2022-11-20T08:51:39;13.48;;;3.10;;
43893;SDS011;29556;50.846;4.442;2022-11-20T08:54:06;13.45;;;2.65;;
43893;SDS011;29556;50.846;4.442;2022-11-20T08:56:32;10.45;;;2.53;;
43893;SDS011;29556;50.846;4.442;2022-11-20T08:58:58;9.90;;;3.08;;
43893;SDS011;29556;50.846;4.442;2022-11-20T09:01:26;9.10;;;4.15;;
43893;SDS011;29556;50.846;4.442;2022-11-20T09:03:54;12.00;;;2.95;;
43893;SDS011;29556;50.846;4.442;2022-11-20T09:06:22;16.33;;;3.50;;
43893;SDS011;29556;50.846;4.442;2022-11-20T09:08:51;11.48;;;2.83;;
43893;SDS011;29556;50.846;4.442;2022-11-20T09:11:17;10.70;;;2.90;;
43893;SDS011;29556;50.846;4.442;2022-11-20T09:13:43;7.50;;;3.00;;
43893;SDS011;29556;50.846;4.442;2022-11-20T09:16:09;10.75;;;3.10;;
43893;SDS011;29556;50.846;4.442;2022-11-20T09:18:35;10.07;;;2.95;;
43893;SDS011;29556;50.846;4.442;2022-11-20T09:21:03;10.52;;;4.28;;
43893;SDS011;29556;50.846;4.442;2022-11-20T09:23:31;7.57;;;2.38;;
43893;SDS011;29556;50.846;4.442;2022-11-20T09:26:20;10.25;;;4.05;;
43893;SDS011;29556;50.846;4.442;2022-11-20T09:28:46;12.00;;;3.03;;
43893;SDS011;29556;50.846;4.442;2022-11-20T09:31:21;8.45;;;2.78;;
43893;SDS011;29556;50.846;4.442;2022-11-20T09:33:48;5.28;;;2.38;;
43893;SDS011;29556;50.846;4.442;2022-11-20T09:36:14;10.15;;;2.50;;
43893;SDS011;29556;50.846;4.442;2022-11-20T09:38:41;11.00;;;2.72;;
43893;SDS011;29556;50.846;4.442;2022-11-20T09:41:35;7.72;;;2.50;;
43893;SDS011;29556;50.846;4.442;2022-11-20T09:47:07;10.93;;;2.28;;
43893;SDS011;29556;50.846;4.442;2022-11-20T09:55:43;6.55;;;2.53;;
43893;SDS011;29556;50.846;4.442;2022-11-20T09:58:16;8.02;;;2.15;;
43893;SDS011;29556;50.846;4.442;2022-11-20T10:00:50;6.90;;;2.78;;
43893;SDS011;29556;50.846;4.442;2022-11-20T10:03:19;7.03;;;2.40;;
43893;SDS011;29556;50.846;4.442;2022-11-20T10:06:02;8.02;;;2.22;;
43893;SDS011;29556;50.846;4.442;2022-11-20T10:08:48;10.52;;;3.22;;
43893;SDS011;29556;50.846;4.442;2022-11-20T10:14:20;5.25;;;1.95;;
43893;SDS011;29556;50.846;4.442;2022-11-20T10:24:52;5.10;;;1.58;;
43893;SDS011;29556;50.846;4.442;2022-11-20T10:30:31;6.13;;;1.75;;
43893;SDS011;29556;50.846;4.442;2022-11-20T10:33:36;9.02;;;1.45;;
43893;SDS011;29556;50.846;4.442;2022-11-20T10:38:58;2.47;;;1.58;;
43893;SDS011;29556;50.846;4.442;2022-11-20T10:41:34;2.85;;;1.17;;
43893;SDS011;29556;50.846;4.442;2022-11-20T10:44:15;5.78;;;1.27;;
43893;SDS011;29556;50.846;4.442;2022-11-20T10:47:04;3.30;;;1.48;;
43893;SDS011;29556;50.846;4.442;2022-11-20T10:49:35;2.20;;;1.15;;
43893;SDS011;29556;50.846;4.442;2022-11-20T10:52:17;1.42;;;0.90;;
43893;SDS011;29556;50.846;4.442;2022-11-20T10:54:57;1.73;;;0.80;;
43893;SDS011;29556;50.846;4.442;2022-11-20T10:57:35;1.25;;;0.60;;
43893;SDS011;29556;50.846;4.442;2022-11-20T11:00:26;0.88;;;0.70;;
43893;SDS011;29556;50.846;4.442;2022-11-20T11:02:55;6.25;;;0.75;;
43893;SDS011;29556;50.846;4.442;2022-11-20T11:08:26;2.35;;;0.70;;
43893;SDS011;29556;50.846;4.442;2022-11-20T11:10:59;0.52;;;0.45;;
43893;SDS011;29556;50.846;4.442;2022-11-20T11:13:28;1.30;;;0.40;;
43893;SDS011;29556;50.846;4.442;2022-11-20T11:15:55;0.70;;;0.50;;
43893;SDS011;29556;50.846;4.442;2022-11-20T11:18:26;0.75;;;0.40;;
43893;SDS011;29556;50.846;4.442;2022-11-20T11:20:56;0.88;;;0.45;;
43893;SDS011;29556;50.846;4.442;2022-11-20T11:23:31;0.40;;;0.40;;
43893;SDS011;29556;50.846;4.442;2022-11-20T11:26:18;0.90;;;0.35;;
43893;SDS011;29556;50.846;4.442;2022-11-20T11:31:24;1.08;;;0.30;;
43893;SDS011;29556;50.846;4.442;2022-11-20T11:34:03;1.15;;;0.57;;
43893;SDS011;29556;50.846;4.442;2022-11-20T11:36:33;4.53;;;1.23;;
43893;SDS011;29556;50.846;4.442;2022-11-20T11:39:00;1.35;;;0.40;;
43893;SDS011;29556;50.846;4.442;2022-11-20T11:41:29;1.35;;;0.55;;
43893;SDS011;29556;50.846;4.442;2022-11-20T11:44:00;1.55;;;0.40;;
43893;SDS011;29556;50.846;4.442;2022-11-20T11:46:56;0.82;;;0.30;;
43893;SDS011;29556;50.846;4.442;2022-11-20T11:49:24;1.65;;;0.90;;
43893;SDS011;29556;50.846;4.442;2022-11-20T11:54:47;0.30;;;0.30;;
43893;SDS011;29556;50.846;4.442;2022-11-20T12:13:36;0.40;;;0.40;;
43893;SDS011;29556;50.846;4.442;2022-11-20T12:16:11;0.68;;;0.68;;
43893;SDS011;29556;50.846;4.442;2022-11-20T12:18:40;1.00;;;0.47;;
43893;SDS011;29556;50.846;4.442;2022-11-20T12:32:35;0.30;;;0.30;;
43893;SDS011;29556;50.846;4.442;2022-11-20T12:43:39;0.20;;;0.20;;
43893;SDS011;29556;50.846;4.442;2022-11-20T12:46:44;0.40;;;0.40;;
43893;SDS011;29556;50.846;4.442;2022-11-20T12:49:20;1.02;;;0.82;;
43893;SDS011;29556;50.846;4.442;2022-11-20T12:57:48;1.70;;;0.65;;
43893;SDS011;29556;50.846;4.442;2022-11-20T13:05:55;2.45;;;0.85;;
43893;SDS011;29556;50.846;4.442;2022-11-20T13:08:36;2.05;;;0.50;;
43893;SDS011;29556;50.846;4.442;2022-11-20T13:16:53;0.55;;;0.47;;
43893;SDS011;29556;50.846;4.442;2022-11-20T13:19:20;3.75;;;0.50;;
43893;SDS011;29556;50.846;4.442;2022-11-20T13:21:48;0.95;;;0.60;;
43893;SDS011;29556;50.846;4.442;2022-11-20T13:29:33;0.43;;;0.30;;
43893;SDS011;29556;50.846;4.442;2022-11-20T13:32:04;2.38;;;0.55;;
43893;SDS011;29556;50.846;4.442;2022-11-20T13:34:57;0.35;;;0.32;;
43893;SDS011;29556;50.846;4.442;2022-11-20T13:37:34;0.55;;;0.40;;
43893;SDS011;29556;50.846;4.442;2022-11-20T13:42:34;0.13;;;0.13;;
43893;SDS011;29556;50.846;4.442;2022-11-20T13:45:09;0.93;;;0.57;;
43893;SDS011;29556;50.846;4.442;2022-11-20T13:47:49;6.32;;;0.63;;
43893;SDS011;29556;50.846;4.442;2022-11-20T13:50:16;0.30;;;0.28;;
43893;SDS011;29556;50.846;4.442;2022-11-20T13:52:55;0.57;;;0.28;;
43893;SDS011;29556;50.846;4.442;2022-11-20T13:55:58;0.30;;;0.30;;
43893;SDS011;29556;50.846;4.442;2022-11-20T14:01:21;1.20;;;0.40;;
43893;SDS011;29556;50.846;4.442;2022-11-20T14:03:51;0.52;;;0.35;;
43893;SDS011;29556;50.846;4.442;2022-11-20T14:08:58;0.20;;;0.20;;
43893;SDS011;29556;50.846;4.442;2022-11-20T14:11:25;0.28;;;0.28;;
43893;SDS011;29556;50.846;4.442;2022-11-20T14:14:02;0.30;;;0.25;;
43893;SDS011;29556;50.846;4.442;2022-11-20T14:16:35;0.40;;;0.40;;
43893;SDS011;29556;50.846;4.442;2022-11-20T14:24:43;0.28;;;0.28;;
43893;SDS011;29556;50.846;4.442;2022-11-20T14:27:12;0.03;;;0.03;;
43893;SDS011;29556;50.846;4.442;2022-11-20T14:29:44;0.60;;;0.60;;
43893;SDS011;29556;50.846;4.442;2022-11-20T14:32:17;0.32;;;0.17;;
43893;SDS011;29556;50.846;4.442;2022-11-20T14:34:44;1.98;;;0.20;;
43893;SDS011;29556;50.846;4.442;2022-11-20T14:37:13;0.30;;;0.30;;
43893;SDS011;29556;50.846;4.442;2022-11-20T14:39:49;1.30;;;0.38;;
43893;SDS011;29556;50.846;4.442;2022-11-20T14:42:20;0.40;;;0.40;;
43893;SDS011;29556;50.846;4.442;2022-11-20T14:44:52;0.15;;;0.15;;
43893;SDS011;29556;50.846;4.442;2022-11-20T14:47:21;0.20;;;0.20;;
43893;SDS011;29556;50.846;4.442;2022-11-20T14:49:51;0.28;;;0.20;;
43893;SDS011;29556;50.846;4.442;2022-11-20T14:54:49;0.60;;;0.50;;
43893;SDS011;29556;50.846;4.442;2022-11-20T14:57:28;0.73;;;0.38;;
43893;SDS011;29556;50.846;4.442;2022-11-20T15:02:44;3.13;;;0.50;;
43893;SDS011;29556;50.846;4.442;2022-11-20T15:05:11;0.30;;;0.30;;
43893;SDS011;29556;50.846;4.442;2022-11-20T15:07:38;0.30;;;0.30;;
43893;SDS011;29556;50.846;4.442;2022-11-20T15:15:23;1.10;;;0.60;;
43893;SDS011;29556;50.846;4.442;2022-11-20T15:17:52;0.28;;;0.20;;
43893;SDS011;29556;50.846;4.442;2022-11-20T15:20:17;0.30;;;0.25;;
43893;SDS011;29556;50.846;4.442;2022-11-20T15:25:19;0.30;;;0.30;;
43893;SDS011;29556;50.846;4.442;2022-11-20T15:27:55;0.45;;;0.45;;
43893;SDS011;29556;50.846;4.442;2022-11-20T15:30:24;0.60;;;0.40;;
43893;SDS011;29556;50.846;4.442;2022-11-20T15:32:50;0.73;;;0.47;;
43893;SDS011;29556;50.846;4.442;2022-11-20T15:35:16;2.20;;;0.80;;
43893;SDS011;29556;50.846;4.442;2022-11-20T15:37:43;0.50;;;0.50;;
43893;SDS011;29556;50.846;4.442;2022-11-20T15:40:12;0.68;;;0.63;;
43893;SDS011;29556;50.846;4.442;2022-11-20T15:42:38;0.52;;;0.47;;
43893;SDS011;29556;50.846;4.442;2022-11-20T15:45:24;0.30;;;0.30;;
43893;SDS011;29556;50.846;4.442;2022-11-20T15:47:50;1.13;;;0.55;;
43893;SDS011;29556;50.846;4.442;2022-11-20T15:50:15;0.90;;;0.60;;
43893;SDS011;29556;50.846;4.442;2022-11-20T15:52:42;0.30;;;0.25;;
43893;SDS011;29556;50.846;4.442;2022-11-20T15:55:09;1.67;;;0.43;;
43893;SDS011;29556;50.846;4.442;2022-11-20T15:57:35;1.38;;;0.70;;
43893;SDS011;29556;50.846;4.442;2022-11-20T16:02:32;0.57;;;0.32;;
43893;SDS011;29556;50.846;4.442;2022-11-20T16:04:58;0.60;;;0.60;;
43893;SDS011;29556;50.846;4.442;2022-11-20T16:07:24;2.38;;;0.77;;
43893;SDS011;29556;50.846;4.442;2022-11-20T16:09:50;0.95;;;0.55;;
43893;SDS011;29556;50.846;4.442;2022-11-20T16:12:17;0.88;;;0.52;;
43893;SDS011;29556;50.846;4.442;2022-11-20T16:15:03;1.35;;;0.57;;
43893;SDS011;29556;50.846;4.442;2022-11-20T16:17:47;0.40;;;0.30;;
43893;SDS011;29556;50.846;4.442;2022-11-20T16:20:15;2.38;;;0.60;;
43893;SDS011;29556;50.846;4.442;2022-11-20T16:22:42;0.73;;;0.52;;
43893;SDS011;29556;50.846;4.442;2022-11-20T16:25:08;0.38;;;0.25;;
43893;SDS011;29556;50.846;4.442;2022-11-20T16:27:34;1.33;;;0.60;;
43893;SDS011;29556;50.846;4.442;2022-11-20T16:29:59;1.10;;;0.50;;
43893;SDS011;29556;50.846;4.442;2022-11-20T16:32:25;2.58;;;0.70;;
43893;SDS011;29556;50.846;4.442;2022-11-20T16:34:50;0.60;;;0.40;;
43893;SDS011;29556;50.846;4.442;2022-11-20T16:37:16;3.88;;;0.45;;
43893;SDS011;29556;50.846;4.442;2022-11-20T16:39:42;0.70;;;0.50;;
43893;SDS011;29556;50.846;4.442;2022-11-20T16:42:07;2.05;;;1.00;;
43893;SDS011;29556;50.846;4.442;2022-11-20T16:44:33;4.22;;;0.43;;
43893;SDS011;29556;50.846;4.442;2022-11-20T16:46:59;0.47;;;0.35;;
43893;SDS011;29556;50.846;4.442;2022-11-20T16:49:31;0.93;;;0.28;;
43893;SDS011;29556;50.846;4.442;2022-11-20T16:51:59;0.55;;;0.45;;
43893;SDS011;29556;50.846;4.442;2022-11-20T16:54:24;2.75;;;0.80;;
43893;SDS011;29556;50.846;4.442;2022-11-20T16:56:50;0.45;;;0.45;;
43893;SDS011;29556;50.846;4.442;2022-11-20T16:59:18;2.65;;;0.52;;
43893;SDS011;29556;50.846;4.442;2022-11-20T17:01:43;6.03;;;0.80;;
43893;SDS011;29556;50.846;4.442;2022-11-20T17:04:12;0.47;;;0.30;;
43893;SDS011;29556;50.846;4.442;2022-11-20T17:06:40;1.80;;;1.00;;
43893;SDS011;29556;50.846;4.442;2022-11-20T17:09:11;3.83;;;0.55;;